sensor_id;sensor_type;location;lat;lon;timestamp;temperature;humidity
8684;DHT22;4379;59.744;18.206;2022-07-09T00:01:50;13.60;99.90
8684;DHT22;4379;59.744;18.206;2022-07-09T00:04:17;13.60;99.90
8684;DHT22;4379;59.744;18.206;2022-07-09T00:06:45;13.60;99.90
8684;DHT22;4379;59.744;18.206;2022-07-09T00:09:12;13.50;99.90
8684;DHT22;4379;59.744;18.206;2022-07-09T00:11:40;13.60;99.90
8684;DHT22;4379;59.744;18.206;2022-07-09T00:14:07;13.50;99.90
8684;DHT22;4379;59.744;18.206;2022-07-09T00:16:35;13.40;99.90
8684;DHT22;4379;59.744;18.206;2022-07-09T00:19:03;13.50;99.90
8684;DHT22;4379;59.744;18.206;2022-07-09T00:21:31;13.50;99.90
8684;DHT22;4379;59.744;18.206;2022-07-09T00:23:58;13.50;99.90
8684;DHT22;4379;59.744;18.206;2022-07-09T00:26:26;13.40;99.90
8684;DHT22;4379;59.744;18.206;2022-07-09T00:28:53;13.50;99.90
8684;DHT22;4379;59.744;18.206;2022-07-09T00:31:20;13.50;99.90
8684;DHT22;4379;59.744;18.206;2022-07-09T00:33:48;13.50;99.90
8684;DHT22;4379;59.744;18.206;2022-07-09T00:36:15;13.40;99.90
8684;DHT22;4379;59.744;18.206;2022-07-09T00:38:43;13.50;99.90
8684;DHT22;4379;59.744;18.206;2022-07-09T00:41:10;13.50;99.90
8684;DHT22;4379;59.744;18.206;2022-07-09T00:43:37;13.40;99.90
8684;DHT22;4379;59.744;18.206;2022-07-09T00:46:05;13.50;99.90
8684;DHT22;4379;59.744;18.206;2022-07-09T00:48:32;13.50;99.90
8684;DHT22;4379;59.744;18.206;2022-07-09T00:51:00;13.50;99.90
8684;DHT22;4379;59.744;18.206;2022-07-09T00:53:31;13.60;99.90
8684;DHT22;4379;59.744;18.206;2022-07-09T00:55:59;13.50;99.90
8684;DHT22;4379;59.744;18.206;2022-07-09T00:58:27;13.50;99.90
8684;DHT22;4379;59.744;18.206;2022-07-09T01:00:55;13.60;99.90
8684;DHT22;4379;59.744;18.206;2022-07-09T01:03:23;13.60;99.90
8684;DHT22;4379;59.744;18.206;2022-07-09T01:05:51;13.60;99.90
8684;DHT22;4379;59.744;18.206;2022-07-09T01:08:18;13.60;99.90
8684;DHT22;4379;59.744;18.206;2022-07-09T01:10:47;13.60;99.90
8684;DHT22;4379;59.744;18.206;2022-07-09T01:13:15;13.60;99.90
8684;DHT22;4379;59.744;18.206;2022-07-09T01:15:42;13.60;99.90
8684;DHT22;4379;59.744;18.206;2022-07-09T01:18:11;13.60;99.90
8684;DHT22;4379;59.744;18.206;2022-07-09T01:20:38;13.50;99.90
8684;DHT22;4379;59.744;18.206;2022-07-09T01:23:06;13.40;99.90
8684;DHT22;4379;59.744;18.206;2022-07-09T01:25:38;13.40;99.90
8684;DHT22;4379;59.744;18.206;2022-07-09T01:28:07;13.50;99.90
8684;DHT22;4379;59.744;18.206;2022-07-09T01:30:36;13.40;99.90
8684;DHT22;4379;59.744;18.206;2022-07-09T01:33:05;13.40;99.90
8684;DHT22;4379;59.744;18.206;2022-07-09T01:35:32;13.30;99.90
8684;DHT22;4379;59.744;18.206;2022-07-09T01:38:00;13.30;99.90
8684;DHT22;4379;59.744;18.206;2022-07-09T01:40:27;13.30;99.90
8684;DHT22;4379;59.744;18.206;2022-07-09T01:42:55;13.30;99.90
8684;DHT22;4379;59.744;18.206;2022-07-09T01:45:22;13.30;99.90
8684;DHT22;4379;59.744;18.206;2022-07-09T01:47:50;13.30;99.90
8684;DHT22;4379;59.744;18.206;2022-07-09T01:50:17;13.30;99.90
8684;DHT22;4379;59.744;18.206;2022-07-09T01:52:45;13.20;99.90
8684;DHT22;4379;59.744;18.206;2022-07-09T01:55:12;13.20;99.90
8684;DHT22;4379;59.744;18.206;2022-07-09T01:57:40;13.30;99.90
8684;DHT22;4379;59.744;18.206;2022-07-09T02:00:08;13.30;99.90
8684;DHT22;4379;59.744;18.206;2022-07-09T02:02:35;13.30;99.90
8684;DHT22;4379;59.744;18.206;2022-07-09T02:05:03;13.30;99.90
8684;DHT22;4379;59.744;18.206;2022-07-09T02:07:30;13.30;99.90
8684;DHT22;4379;59.744;18.206;2022-07-09T02:09:58;13.30;99.90
8684;DHT22;4379;59.744;18.206;2022-07-09T02:12:25;13.30;99.90
8684;DHT22;4379;59.744;18.206;2022-07-09T02:14:53;13.30;99.90
8684;DHT22;4379;59.744;18.206;2022-07-09T02:17:20;13.30;99.90
8684;DHT22;4379;59.744;18.206;2022-07-09T02:19:48;13.30;99.90
8684;DHT22;4379;59.744;18.206;2022-07-09T02:22:15;13.40;99.90
8684;DHT22;4379;59.744;18.206;2022-07-09T02:24:43;13.40;99.90
8684;DHT22;4379;59.744;18.206;2022-07-09T02:27:10;13.50;99.90
8684;DHT22;4379;59.744;18.206;2022-07-09T02:29:38;13.50;99.90
8684;DHT22;4379;59.744;18.206;2022-07-09T02:32:06;13.50;99.90
8684;DHT22;4379;59.744;18.206;2022-07-09T02:34:34;13.60;99.90
8684;DHT22;4379;59.744;18.206;2022-07-09T02:37:01;13.60;99.90
8684;DHT22;4379;59.744;18.206;2022-07-09T02:39:29;13.50;99.90
8684;DHT22;4379;59.744;18.206;2022-07-09T02:41:56;13.50;99.90
8684;DHT22;4379;59.744;18.206;2022-07-09T02:44:24;13.50;99.90
8684;DHT22;4379;59.744;18.206;2022-07-09T02:46:51;13.50;99.90
8684;DHT22;4379;59.744;18.206;2022-07-09T02:49:19;13.50;99.90
8684;DHT22;4379;59.744;18.206;2022-07-09T02:51:48;13.50;99.90
8684;DHT22;4379;59.744;18.206;2022-07-09T02:54:15;13.50;99.90
8684;DHT22;4379;59.744;18.206;2022-07-09T02:56:43;13.50;99.90
8684;DHT22;4379;59.744;18.206;2022-07-09T02:59:10;13.50;99.90
8684;DHT22;4379;59.744;18.206;2022-07-09T03:01:38;13.50;99.90
8684;DHT22;4379;59.744;18.206;2022-07-09T03:04:07;13.50;99.90
8684;DHT22;4379;59.744;18.206;2022-07-09T03:06:34;13.50;99.90
8684;DHT22;4379;59.744;18.206;2022-07-09T03:09:03;13.50;99.90
8684;DHT22;4379;59.744;18.206;2022-07-09T03:11:30;13.60;99.90
8684;DHT22;4379;59.744;18.206;2022-07-09T03:13:57;13.60;99.90
8684;DHT22;4379;59.744;18.206;2022-07-09T03:16:25;13.60;99.90
8684;DHT22;4379;59.744;18.206;2022-07-09T03:18:52;13.60;99.90
8684;DHT22;4379;59.744;18.206;2022-07-09T03:21:20;13.60;99.90
8684;DHT22;4379;59.744;18.206;2022-07-09T03:23:47;13.60;99.90
8684;DHT22;4379;59.744;18.206;2022-07-09T03:26:15;13.60;99.90
8684;DHT22;4379;59.744;18.206;2022-07-09T03:28:42;13.70;99.90
8684;DHT22;4379;59.744;18.206;2022-07-09T03:31:10;13.80;99.90
8684;DHT22;4379;59.744;18.206;2022-07-09T03:33:37;13.90;99.90
8684;DHT22;4379;59.744;18.206;2022-07-09T03:36:05;14.00;99.90
8684;DHT22;4379;59.744;18.206;2022-07-09T03:38:33;14.10;99.90
8684;DHT22;4379;59.744;18.206;2022-07-09T03:41:02;14.10;99.90
8684;DHT22;4379;59.744;18.206;2022-07-09T03:43:29;14.00;99.90
8684;DHT22;4379;59.744;18.206;2022-07-09T03:45:57;14.10;99.90
8684;DHT22;4379;59.744;18.206;2022-07-09T03:48:25;14.10;99.90
8684;DHT22;4379;59.744;18.206;2022-07-09T03:50:52;14.20;99.90
8684;DHT22;4379;59.744;18.206;2022-07-09T03:53:19;14.30;99.90
8684;DHT22;4379;59.744;18.206;2022-07-09T03:55:47;14.40;99.90
8684;DHT22;4379;59.744;18.206;2022-07-09T03:58:17;14.40;99.90
8684;DHT22;4379;59.744;18.206;2022-07-09T04:00:45;14.50;99.90
8684;DHT22;4379;59.744;18.206;2022-07-09T04:03:13;14.60;99.90
8684;DHT22;4379;59.744;18.206;2022-07-09T04:05:41;14.60;99.90
8684;DHT22;4379;59.744;18.206;2022-07-09T04:08:11;14.50;99.90
8684;DHT22;4379;59.744;18.206;2022-07-09T04:10:39;14.50;99.90
8684;DHT22;4379;59.744;18.206;2022-07-09T04:13:08;14.50;99.90
8684;DHT22;4379;59.744;18.206;2022-07-09T04:15:41;14.50;99.90
8684;DHT22;4379;59.744;18.206;2022-07-09T04:18:09;14.50;99.90
8684;DHT22;4379;59.744;18.206;2022-07-09T04:20:38;14.60;99.90
8684;DHT22;4379;59.744;18.206;2022-07-09T04:23:07;14.70;99.90
8684;DHT22;4379;59.744;18.206;2022-07-09T04:25:36;14.60;99.90
8684;DHT22;4379;59.744;18.206;2022-07-09T04:28:04;14.60;99.90
8684;DHT22;4379;59.744;18.206;2022-07-09T04:30:33;14.70;99.90
8684;DHT22;4379;59.744;18.206;2022-07-09T04:33:02;15.00;99.90
8684;DHT22;4379;59.744;18.206;2022-07-09T04:35:29;15.00;99.90
8684;DHT22;4379;59.744;18.206;2022-07-09T04:37:58;15.20;99.90
8684;DHT22;4379;59.744;18.206;2022-07-09T04:40:26;15.20;99.90
8684;DHT22;4379;59.744;18.206;2022-07-09T04:42:55;15.60;99.90
8684;DHT22;4379;59.744;18.206;2022-07-09T04:45:22;15.90;99.90
8684;DHT22;4379;59.744;18.206;2022-07-09T04:47:51;16.10;99.90
8684;DHT22;4379;59.744;18.206;2022-07-09T04:50:20;15.80;99.90
8684;DHT22;4379;59.744;18.206;2022-07-09T04:52:48;15.90;99.90
8684;DHT22;4379;59.744;18.206;2022-07-09T04:55:17;16.00;99.90
8684;DHT22;4379;59.744;18.206;2022-07-09T04:57:45;16.00;99.90
8684;DHT22;4379;59.744;18.206;2022-07-09T05:00:14;15.80;99.90
8684;DHT22;4379;59.744;18.206;2022-07-09T05:02:45;15.80;99.90
8684;DHT22;4379;59.744;18.206;2022-07-09T05:05:13;15.90;99.90
8684;DHT22;4379;59.744;18.206;2022-07-09T05:07:41;15.90;99.90
8684;DHT22;4379;59.744;18.206;2022-07-09T05:10:10;15.80;99.90
8684;DHT22;4379;59.744;18.206;2022-07-09T05:12:39;15.70;99.90
8684;DHT22;4379;59.744;18.206;2022-07-09T05:15:09;15.60;99.90
8684;DHT22;4379;59.744;18.206;2022-07-09T05:17:39;15.70;99.90
8684;DHT22;4379;59.744;18.206;2022-07-09T05:20:09;15.60;99.90
8684;DHT22;4379;59.744;18.206;2022-07-09T05:22:38;15.60;99.90
8684;DHT22;4379;59.744;18.206;2022-07-09T05:25:10;15.60;99.90
8684;DHT22;4379;59.744;18.206;2022-07-09T05:27:43;15.60;99.90
8684;DHT22;4379;59.744;18.206;2022-07-09T05:30:13;15.60;99.90
8684;DHT22;4379;59.744;18.206;2022-07-09T05:32:47;15.40;99.90
8684;DHT22;4379;59.744;18.206;2022-07-09T05:35:16;15.40;99.90
8684;DHT22;4379;59.744;18.206;2022-07-09T05:37:47;15.50;99.90
8684;DHT22;4379;59.744;18.206;2022-07-09T05:40:17;15.60;99.90
8684;DHT22;4379;59.744;18.206;2022-07-09T05:42:46;15.70;99.90
8684;DHT22;4379;59.744;18.206;2022-07-09T05:45:14;15.70;99.90
8684;DHT22;4379;59.744;18.206;2022-07-09T05:47:43;16.00;99.90
8684;DHT22;4379;59.744;18.206;2022-07-09T05:50:12;16.00;99.90
8684;DHT22;4379;59.744;18.206;2022-07-09T05:52:39;15.90;99.90
8684;DHT22;4379;59.744;18.206;2022-07-09T05:55:07;16.00;99.90
8684;DHT22;4379;59.744;18.206;2022-07-09T05:57:35;16.00;99.90
8684;DHT22;4379;59.744;18.206;2022-07-09T06:00:03;16.10;99.90
8684;DHT22;4379;59.744;18.206;2022-07-09T06:02:31;16.20;99.90
8684;DHT22;4379;59.744;18.206;2022-07-09T06:05:01;16.20;99.90
8684;DHT22;4379;59.744;18.206;2022-07-09T06:07:28;16.60;99.90
8684;DHT22;4379;59.744;18.206;2022-07-09T06:09:56;16.70;99.90
8684;DHT22;4379;59.744;18.206;2022-07-09T06:12:23;16.90;99.90
8684;DHT22;4379;59.744;18.206;2022-07-09T06:14:51;17.10;99.90
8684;DHT22;4379;59.744;18.206;2022-07-09T06:17:19;17.30;99.90
8684;DHT22;4379;59.744;18.206;2022-07-09T06:19:48;17.50;99.90
8684;DHT22;4379;59.744;18.206;2022-07-09T06:22:16;17.70;99.90
8684;DHT22;4379;59.744;18.206;2022-07-09T06:24:43;17.40;99.90
8684;DHT22;4379;59.744;18.206;2022-07-09T06:27:12;17.40;99.90
8684;DHT22;4379;59.744;18.206;2022-07-09T06:29:42;17.60;99.90
8684;DHT22;4379;59.744;18.206;2022-07-09T06:32:10;17.70;99.90
8684;DHT22;4379;59.744;18.206;2022-07-09T06:34:41;18.00;99.90
8684;DHT22;4379;59.744;18.206;2022-07-09T06:37:08;18.00;99.90
8684;DHT22;4379;59.744;18.206;2022-07-09T06:39:36;18.10;99.90
8684;DHT22;4379;59.744;18.206;2022-07-09T06:42:15;18.40;99.90
8684;DHT22;4379;59.744;18.206;2022-07-09T06:44:43;18.60;99.90
8684;DHT22;4379;59.744;18.206;2022-07-09T06:47:11;18.50;99.90
8684;DHT22;4379;59.744;18.206;2022-07-09T06:49:40;18.30;99.90
8684;DHT22;4379;59.744;18.206;2022-07-09T06:52:08;18.20;99.90
8684;DHT22;4379;59.744;18.206;2022-07-09T06:54:36;18.00;99.90
8684;DHT22;4379;59.744;18.206;2022-07-09T06:57:05;18.20;99.90
8684;DHT22;4379;59.744;18.206;2022-07-09T06:59:34;18.20;99.90
8684;DHT22;4379;59.744;18.206;2022-07-09T07:02:03;18.00;99.90
8684;DHT22;4379;59.744;18.206;2022-07-09T07:04:31;17.90;99.90
8684;DHT22;4379;59.744;18.206;2022-07-09T07:06:59;18.00;99.90
8684;DHT22;4379;59.744;18.206;2022-07-09T07:09:26;18.10;99.90
8684;DHT22;4379;59.744;18.206;2022-07-09T07:11:56;18.10;99.90
8684;DHT22;4379;59.744;18.206;2022-07-09T07:14:24;18.00;99.90
8684;DHT22;4379;59.744;18.206;2022-07-09T07:16:52;18.10;99.90
8684;DHT22;4379;59.744;18.206;2022-07-09T07:19:20;18.20;99.90
8684;DHT22;4379;59.744;18.206;2022-07-09T07:21:51;18.20;99.90
8684;DHT22;4379;59.744;18.206;2022-07-09T07:24:18;18.70;99.90
8684;DHT22;4379;59.744;18.206;2022-07-09T07:26:46;19.80;99.90
8684;DHT22;4379;59.744;18.206;2022-07-09T07:29:13;20.50;99.90
8684;DHT22;4379;59.744;18.206;2022-07-09T07:31:41;22.00;99.90
8684;DHT22;4379;59.744;18.206;2022-07-09T07:34:08;23.80;99.90
8684;DHT22;4379;59.744;18.206;2022-07-09T07:36:36;26.30;99.90
8684;DHT22;4379;59.744;18.206;2022-07-09T07:39:05;28.20;99.90
8684;DHT22;4379;59.744;18.206;2022-07-09T07:41:33;30.00;99.90
8684;DHT22;4379;59.744;18.206;2022-07-09T07:44:01;31.20;99.90
8684;DHT22;4379;59.744;18.206;2022-07-09T07:46:29;30.60;99.90
8684;DHT22;4379;59.744;18.206;2022-07-09T07:48:56;31.20;99.90
8684;DHT22;4379;59.744;18.206;2022-07-09T07:51:25;33.60;99.90
8684;DHT22;4379;59.744;18.206;2022-07-09T07:53:53;35.90;99.90
8684;DHT22;4379;59.744;18.206;2022-07-09T07:56:21;35.00;99.90
8684;DHT22;4379;59.744;18.206;2022-07-09T07:58:50;34.70;99.90
8684;DHT22;4379;59.744;18.206;2022-07-09T08:01:21;34.10;99.90
8684;DHT22;4379;59.744;18.206;2022-07-09T08:03:52;34.30;99.90
8684;DHT22;4379;59.744;18.206;2022-07-09T08:06:20;32.30;99.90
8684;DHT22;4379;59.744;18.206;2022-07-09T08:08:50;33.20;99.90
8684;DHT22;4379;59.744;18.206;2022-07-09T08:11:18;36.10;99.90
8684;DHT22;4379;59.744;18.206;2022-07-09T08:13:45;38.20;99.90
8684;DHT22;4379;59.744;18.206;2022-07-09T08:16:14;38.80;99.90
8684;DHT22;4379;59.744;18.206;2022-07-09T08:18:45;39.30;99.90
8684;DHT22;4379;59.744;18.206;2022-07-09T08:21:25;36.20;99.90
8684;DHT22;4379;59.744;18.206;2022-07-09T08:23:55;35.70;99.00
8684;DHT22;4379;59.744;18.206;2022-07-09T08:26:24;32.90;99.90
8684;DHT22;4379;59.744;18.206;2022-07-09T08:28:53;34.40;99.90
8684;DHT22;4379;59.744;18.206;2022-07-09T08:31:22;32.90;99.90
8684;DHT22;4379;59.744;18.206;2022-07-09T08:33:50;34.40;99.90
8684;DHT22;4379;59.744;18.206;2022-07-09T08:36:18;35.60;99.90
8684;DHT22;4379;59.744;18.206;2022-07-09T08:38:46;34.90;99.90
8684;DHT22;4379;59.744;18.206;2022-07-09T08:41:23;33.40;99.90
8684;DHT22;4379;59.744;18.206;2022-07-09T08:43:54;33.60;99.90
8684;DHT22;4379;59.744;18.206;2022-07-09T08:46:21;31.90;99.90
8684;DHT22;4379;59.744;18.206;2022-07-09T08:48:49;30.90;99.90
8684;DHT22;4379;59.744;18.206;2022-07-09T08:51:18;28.50;99.90
8684;DHT22;4379;59.744;18.206;2022-07-09T08:53:47;26.80;99.90
8684;DHT22;4379;59.744;18.206;2022-07-09T08:56:14;26.30;99.90
8684;DHT22;4379;59.744;18.206;2022-07-09T08:58:42;26.30;99.90
8684;DHT22;4379;59.744;18.206;2022-07-09T09:01:14;26.20;99.90
8684;DHT22;4379;59.744;18.206;2022-07-09T09:03:42;25.30;99.90
8684;DHT22;4379;59.744;18.206;2022-07-09T09:06:11;25.40;99.90
8684;DHT22;4379;59.744;18.206;2022-07-09T09:08:41;24.80;99.90
8684;DHT22;4379;59.744;18.206;2022-07-09T09:11:20;24.50;99.90
8684;DHT22;4379;59.744;18.206;2022-07-09T09:13:49;24.50;99.90
8684;DHT22;4379;59.744;18.206;2022-07-09T09:16:19;25.10;99.90
8684;DHT22;4379;59.744;18.206;2022-07-09T09:18:51;25.20;99.90
8684;DHT22;4379;59.744;18.206;2022-07-09T09:21:24;24.60;99.90
8684;DHT22;4379;59.744;18.206;2022-07-09T09:23:53;24.80;99.90
8684;DHT22;4379;59.744;18.206;2022-07-09T09:26:26;25.00;99.90
8684;DHT22;4379;59.744;18.206;2022-07-09T09:29:04;24.90;99.90
8684;DHT22;4379;59.744;18.206;2022-07-09T09:31:35;24.80;99.90
8684;DHT22;4379;59.744;18.206;2022-07-09T09:34:10;25.20;99.90
8684;DHT22;4379;59.744;18.206;2022-07-09T09:36:47;24.80;99.90
8684;DHT22;4379;59.744;18.206;2022-07-09T09:41:57;24.90;99.90
8684;DHT22;4379;59.744;18.206;2022-07-09T09:44:33;24.40;99.90
8684;DHT22;4379;59.744;18.206;2022-07-09T09:47:06;23.90;99.90
8684;DHT22;4379;59.744;18.206;2022-07-09T09:49:35;23.50;99.90
8684;DHT22;4379;59.744;18.206;2022-07-09T09:52:09;23.80;99.90
8684;DHT22;4379;59.744;18.206;2022-07-09T09:54:39;24.00;99.90
8684;DHT22;4379;59.744;18.206;2022-07-09T09:57:09;23.80;99.90
8684;DHT22;4379;59.744;18.206;2022-07-09T09:59:38;24.20;99.90
8684;DHT22;4379;59.744;18.206;2022-07-09T10:02:07;24.50;99.90
8684;DHT22;4379;59.744;18.206;2022-07-09T10:04:37;24.20;99.90
8684;DHT22;4379;59.744;18.206;2022-07-09T10:07:06;24.30;99.90
8684;DHT22;4379;59.744;18.206;2022-07-09T10:09:34;24.30;99.90
8684;DHT22;4379;59.744;18.206;2022-07-09T10:12:01;24.70;99.90
8684;DHT22;4379;59.744;18.206;2022-07-09T10:14:34;24.80;99.90
8684;DHT22;4379;59.744;18.206;2022-07-09T10:17:15;24.70;99.90
8684;DHT22;4379;59.744;18.206;2022-07-09T10:20:04;24.80;99.90
8684;DHT22;4379;59.744;18.206;2022-07-09T10:22:40;24.70;99.90
8684;DHT22;4379;59.744;18.206;2022-07-09T10:25:10;24.90;99.90
8684;DHT22;4379;59.744;18.206;2022-07-09T10:27:46;24.90;99.90
8684;DHT22;4379;59.744;18.206;2022-07-09T10:30:25;24.70;99.90
8684;DHT22;4379;59.744;18.206;2022-07-09T10:33:07;24.40;99.90
8684;DHT22;4379;59.744;18.206;2022-07-09T10:35:45;23.80;99.90
8684;DHT22;4379;59.744;18.206;2022-07-09T10:38:14;23.60;99.90
8684;DHT22;4379;59.744;18.206;2022-07-09T10:40:47;24.10;99.90
8684;DHT22;4379;59.744;18.206;2022-07-09T10:43:15;24.50;99.90
8684;DHT22;4379;59.744;18.206;2022-07-09T10:45:44;24.40;99.90
8684;DHT22;4379;59.744;18.206;2022-07-09T10:48:16;24.50;99.90
8684;DHT22;4379;59.744;18.206;2022-07-09T10:50:45;23.90;99.90
8684;DHT22;4379;59.744;18.206;2022-07-09T10:53:15;22.80;99.90
8684;DHT22;4379;59.744;18.206;2022-07-09T10:55:44;22.40;99.90
8684;DHT22;4379;59.744;18.206;2022-07-09T10:58:19;22.60;99.90
8684;DHT22;4379;59.744;18.206;2022-07-09T11:00:58;23.30;99.90
8684;DHT22;4379;59.744;18.206;2022-07-09T11:03:28;23.70;99.90
8684;DHT22;4379;59.744;18.206;2022-07-09T11:05:56;24.20;99.90
8684;DHT22;4379;59.744;18.206;2022-07-09T11:08:26;24.20;99.90
8684;DHT22;4379;59.744;18.206;2022-07-09T11:10:54;24.50;99.90
8684;DHT22;4379;59.744;18.206;2022-07-09T11:13:24;24.40;99.90
8684;DHT22;4379;59.744;18.206;2022-07-09T11:15:59;24.10;99.90
8684;DHT22;4379;59.744;18.206;2022-07-09T11:18:34;23.40;99.90
8684;DHT22;4379;59.744;18.206;2022-07-09T11:21:03;23.10;99.90
8684;DHT22;4379;59.744;18.206;2022-07-09T11:23:32;23.40;99.90
8684;DHT22;4379;59.744;18.206;2022-07-09T11:26:00;24.10;99.90
8684;DHT22;4379;59.744;18.206;2022-07-09T11:28:28;23.90;99.90
8684;DHT22;4379;59.744;18.206;2022-07-09T11:33:26;24.10;99.90
8684;DHT22;4379;59.744;18.206;2022-07-09T11:35:54;23.90;99.90
8684;DHT22;4379;59.744;18.206;2022-07-09T11:38:21;23.30;99.90
8684;DHT22;4379;59.744;18.206;2022-07-09T11:40:59;22.80;99.90
8684;DHT22;4379;59.744;18.206;2022-07-09T11:43:27;22.40;99.90
8684;DHT22;4379;59.744;18.206;2022-07-09T11:45:55;22.20;99.90
8684;DHT22;4379;59.744;18.206;2022-07-09T11:48:22;22.10;99.90
8684;DHT22;4379;59.744;18.206;2022-07-09T11:50:50;21.90;99.90
8684;DHT22;4379;59.744;18.206;2022-07-09T11:53:22;21.70;99.90
8684;DHT22;4379;59.744;18.206;2022-07-09T11:55:59;21.70;99.90
8684;DHT22;4379;59.744;18.206;2022-07-09T11:58:28;21.40;99.90
8684;DHT22;4379;59.744;18.206;2022-07-09T12:00:56;22.00;99.90
8684;DHT22;4379;59.744;18.206;2022-07-09T12:03:24;22.70;99.90
8684;DHT22;4379;59.744;18.206;2022-07-09T12:05:52;23.30;99.90
8684;DHT22;4379;59.744;18.206;2022-07-09T12:08:30;23.70;99.90
8684;DHT22;4379;59.744;18.206;2022-07-09T12:10:59;24.30;99.90
8684;DHT22;4379;59.744;18.206;2022-07-09T12:13:27;24.40;99.90
8684;DHT22;4379;59.744;18.206;2022-07-09T12:15:57;24.20;99.90
8684;DHT22;4379;59.744;18.206;2022-07-09T12:18:25;24.40;99.90
8684;DHT22;4379;59.744;18.206;2022-07-09T12:20:53;24.90;99.90
8684;DHT22;4379;59.744;18.206;2022-07-09T12:23:20;24.90;99.90
8684;DHT22;4379;59.744;18.206;2022-07-09T12:25:48;24.60;99.90
8684;DHT22;4379;59.744;18.206;2022-07-09T12:28:16;24.50;99.90
8684;DHT22;4379;59.744;18.206;2022-07-09T12:30:43;25.00;99.90
8684;DHT22;4379;59.744;18.206;2022-07-09T12:33:14;24.50;99.90
8684;DHT22;4379;59.744;18.206;2022-07-09T12:35:41;24.10;99.90
8684;DHT22;4379;59.744;18.206;2022-07-09T12:38:09;23.50;99.90
8684;DHT22;4379;59.744;18.206;2022-07-09T12:40:36;23.40;99.90
8684;DHT22;4379;59.744;18.206;2022-07-09T12:43:04;23.00;99.90
8684;DHT22;4379;59.744;18.206;2022-07-09T12:45:32;23.00;99.90
8684;DHT22;4379;59.744;18.206;2022-07-09T12:47:59;22.90;99.90
8684;DHT22;4379;59.744;18.206;2022-07-09T12:50:26;22.90;99.90
8684;DHT22;4379;59.744;18.206;2022-07-09T12:52:55;22.80;99.90
8684;DHT22;4379;59.744;18.206;2022-07-09T12:55:22;22.60;99.90
8684;DHT22;4379;59.744;18.206;2022-07-09T12:57:50;22.60;99.90
8684;DHT22;4379;59.744;18.206;2022-07-09T13:00:17;22.50;99.90
8684;DHT22;4379;59.744;18.206;2022-07-09T13:02:45;22.40;99.90
8684;DHT22;4379;59.744;18.206;2022-07-09T13:05:13;22.40;99.90
8684;DHT22;4379;59.744;18.206;2022-07-09T13:07:44;22.30;99.90
8684;DHT22;4379;59.744;18.206;2022-07-09T13:10:11;22.10;99.90
8684;DHT22;4379;59.744;18.206;2022-07-09T13:12:38;22.00;99.90
8684;DHT22;4379;59.744;18.206;2022-07-09T13:15:06;22.00;99.90
8684;DHT22;4379;59.744;18.206;2022-07-09T13:17:34;21.80;99.90
8684;DHT22;4379;59.744;18.206;2022-07-09T13:20:01;21.70;99.90
8684;DHT22;4379;59.744;18.206;2022-07-09T13:22:29;21.80;99.90
8684;DHT22;4379;59.744;18.206;2022-07-09T13:24:56;22.10;99.90
8684;DHT22;4379;59.744;18.206;2022-07-09T13:27:24;22.20;99.90
8684;DHT22;4379;59.744;18.206;2022-07-09T13:29:51;22.20;99.90
8684;DHT22;4379;59.744;18.206;2022-07-09T13:32:20;22.00;99.90
8684;DHT22;4379;59.744;18.206;2022-07-09T13:34:52;22.10;99.90
8684;DHT22;4379;59.744;18.206;2022-07-09T13:37:20;22.20;99.90
8684;DHT22;4379;59.744;18.206;2022-07-09T13:39:50;22.30;99.90
8684;DHT22;4379;59.744;18.206;2022-07-09T13:42:20;22.20;99.90
8684;DHT22;4379;59.744;18.206;2022-07-09T13:44:48;21.90;99.90
8684;DHT22;4379;59.744;18.206;2022-07-09T13:47:15;22.00;99.90
8684;DHT22;4379;59.744;18.206;2022-07-09T13:49:42;22.30;99.90
8684;DHT22;4379;59.744;18.206;2022-07-09T13:52:10;22.70;99.90
8684;DHT22;4379;59.744;18.206;2022-07-09T13:54:38;23.20;99.90
8684;DHT22;4379;59.744;18.206;2022-07-09T13:57:05;23.10;99.90
8684;DHT22;4379;59.744;18.206;2022-07-09T13:59:33;23.50;99.90
8684;DHT22;4379;59.744;18.206;2022-07-09T14:02:00;23.70;99.90
8684;DHT22;4379;59.744;18.206;2022-07-09T14:04:28;23.50;99.90
8684;DHT22;4379;59.744;18.206;2022-07-09T14:06:56;22.80;99.90
8684;DHT22;4379;59.744;18.206;2022-07-09T14:09:24;22.30;99.90
8684;DHT22;4379;59.744;18.206;2022-07-09T14:11:51;21.90;99.90
8684;DHT22;4379;59.744;18.206;2022-07-09T14:14:19;21.50;99.90
8684;DHT22;4379;59.744;18.206;2022-07-09T14:16:46;21.10;99.90
8684;DHT22;4379;59.744;18.206;2022-07-09T14:19:14;20.70;99.90
8684;DHT22;4379;59.744;18.206;2022-07-09T14:21:42;20.60;99.90
8684;DHT22;4379;59.744;18.206;2022-07-09T14:24:13;20.70;99.90
8684;DHT22;4379;59.744;18.206;2022-07-09T14:26:41;20.50;99.90
8684;DHT22;4379;59.744;18.206;2022-07-09T14:29:12;20.20;99.90
8684;DHT22;4379;59.744;18.206;2022-07-09T14:31:49;19.90;99.90
8684;DHT22;4379;59.744;18.206;2022-07-09T14:34:17;19.80;99.90
8684;DHT22;4379;59.744;18.206;2022-07-09T14:36:45;19.90;99.90
8684;DHT22;4379;59.744;18.206;2022-07-09T14:39:12;20.00;99.90
8684;DHT22;4379;59.744;18.206;2022-07-09T14:41:39;20.00;99.90
8684;DHT22;4379;59.744;18.206;2022-07-09T14:44:07;20.00;99.90
8684;DHT22;4379;59.744;18.206;2022-07-09T14:46:34;20.30;99.90
8684;DHT22;4379;59.744;18.206;2022-07-09T14:49:02;20.50;99.90
8684;DHT22;4379;59.744;18.206;2022-07-09T14:51:30;20.50;99.90
8684;DHT22;4379;59.744;18.206;2022-07-09T14:53:59;20.70;99.90
8684;DHT22;4379;59.744;18.206;2022-07-09T14:56:27;20.80;99.90
8684;DHT22;4379;59.744;18.206;2022-07-09T14:58:54;20.70;99.90
8684;DHT22;4379;59.744;18.206;2022-07-09T15:01:23;20.90;99.90
8684;DHT22;4379;59.744;18.206;2022-07-09T15:03:50;21.00;99.90
8684;DHT22;4379;59.744;18.206;2022-07-09T15:06:17;21.10;99.90
8684;DHT22;4379;59.744;18.206;2022-07-09T15:08:45;20.70;99.90
8684;DHT22;4379;59.744;18.206;2022-07-09T15:11:12;20.70;99.90
8684;DHT22;4379;59.744;18.206;2022-07-09T15:13:40;20.40;99.90
8684;DHT22;4379;59.744;18.206;2022-07-09T15:16:07;20.20;99.90
8684;DHT22;4379;59.744;18.206;2022-07-09T15:18:35;20.00;99.90
8684;DHT22;4379;59.744;18.206;2022-07-09T15:21:03;19.90;99.90
8684;DHT22;4379;59.744;18.206;2022-07-09T15:23:31;19.80;99.90
8684;DHT22;4379;59.744;18.206;2022-07-09T15:25:59;19.20;99.90
8684;DHT22;4379;59.744;18.206;2022-07-09T15:28:27;18.80;99.90
8684;DHT22;4379;59.744;18.206;2022-07-09T15:31:16;18.80;99.90
8684;DHT22;4379;59.744;18.206;2022-07-09T15:33:43;18.90;99.90
8684;DHT22;4379;59.744;18.206;2022-07-09T15:36:12;18.90;99.90
8684;DHT22;4379;59.744;18.206;2022-07-09T15:38:39;18.80;99.90
8684;DHT22;4379;59.744;18.206;2022-07-09T15:41:07;19.10;99.90
8684;DHT22;4379;59.744;18.206;2022-07-09T15:43:39;19.10;99.90
8684;DHT22;4379;59.744;18.206;2022-07-09T15:46:06;19.10;99.90
8684;DHT22;4379;59.744;18.206;2022-07-09T15:48:34;19.10;99.90
8684;DHT22;4379;59.744;18.206;2022-07-09T15:51:02;19.00;99.90
8684;DHT22;4379;59.744;18.206;2022-07-09T15:53:30;19.10;99.90
8684;DHT22;4379;59.744;18.206;2022-07-09T15:55:57;19.00;99.90
8684;DHT22;4379;59.744;18.206;2022-07-09T15:58:25;19.00;99.90
8684;DHT22;4379;59.744;18.206;2022-07-09T16:00:54;18.90;99.90